Araucaria, Brazil
Current Conditions -  °F | °C
As of 3:00 AM on Wednesday 26 Nov 2014 (Local Time) from SBCT Reporting Station
Overcast Overcast  
Wind Chill: 66°   Ceiling: 600
Heat Index: 66°   Visibility: 6mi
Dew Point: 64°   Wind: 3mph
Humidity: 94%   Direction: 90°E
Pressure: 29.83"   Gusts: NA
Location:  25.58°S, 49.4°W
Report Text: SBCT 260500Z 09003KT 9000 SCT003 OVC006 19/18 Q1010
Loading
Personal Weather Stations






























Interactive Weather Map New forecast layout! Learn more

10-Day Weather Forecast

Advertisements
Track Severe Weather on mobile